createdAt,value
2018-07-22T00:00:12.255Z,26.30
2018-07-22T00:02:41.364Z,25.67
2018-07-22T00:05:10.046Z,26.03
2018-07-22T00:07:38.970Z,26.70
2018-07-22T00:10:27.193Z,25.60
2018-07-22T00:12:56.034Z,26.63
2018-07-22T00:15:24.633Z,25.50
2018-07-22T00:17:53.353Z,25.53
2018-07-22T00:20:22.026Z,25.33
2018-07-22T00:22:50.619Z,25.93
2018-07-22T00:25:19.216Z,25.37
2018-07-22T00:27:47.806Z,27.33
2018-07-22T00:30:16.449Z,26.70
2018-07-22T00:32:45.029Z,27.07
2018-07-22T00:35:13.637Z,25.53
2018-07-22T00:37:42.339Z,27.27
2018-07-22T00:40:12.113Z,25.93
2018-07-22T00:42:40.825Z,25.93
2018-07-22T00:45:12.309Z,27.07
2018-07-22T00:47:41.550Z,26.17
2018-07-22T00:50:10.337Z,25.73
2018-07-22T00:52:39.500Z,24.77
2018-07-22T00:55:08.179Z,24.80
2018-07-22T00:57:36.899Z,26.03
2018-07-22T01:00:06.627Z,25.40
2018-07-22T01:02:37.141Z,24.30
2018-07-22T01:05:06.605Z,24.47
2018-07-22T01:07:35.402Z,26.20
2018-07-22T01:10:04.211Z,23.83
2018-07-22T01:12:32.905Z,23.70
2018-07-22T01:15:01.541Z,23.03
2018-07-22T01:17:30.175Z,25.47
2018-07-22T01:19:58.776Z,24.70
2018-07-22T01:22:27.365Z,24.97
2018-07-22T01:24:55.965Z,23.80
2018-07-22T01:27:24.594Z,23.20
2018-07-22T01:29:53.290Z,24.13
2018-07-22T01:32:22.049Z,23.70
2018-07-22T01:34:50.694Z,23.73
2018-07-22T01:37:19.446Z,23.50
2018-07-22T01:39:48.346Z,25.17
2018-07-22T01:42:17.077Z,23.67
2018-07-22T01:44:45.718Z,24.57
2018-07-22T01:47:14.333Z,22.30
2018-07-22T01:49:42.919Z,24.30
2018-07-22T01:52:11.527Z,24.43
2018-07-22T01:54:40.137Z,24.07
2018-07-22T01:57:08.800Z,25.90
2018-07-22T01:59:37.523Z,25.60
2018-07-22T02:02:06.268Z,25.23
2018-07-22T02:04:35.037Z,27.20
2018-07-22T02:07:03.839Z,27.03
2018-07-22T02:09:32.637Z,27.67
2018-07-22T02:12:01.232Z,28.40
2018-07-22T02:14:29.862Z,29.97
2018-07-22T02:16:58.468Z,30.03
2018-07-22T02:19:27.097Z,29.53
2018-07-22T02:21:55.665Z,27.97
2018-07-22T02:24:24.285Z,29.23
2018-07-22T02:26:52.922Z,28.47
2018-07-22T02:29:21.680Z,28.70
2018-07-22T02:31:50.261Z,27.53
2018-07-22T02:34:18.893Z,28.73
2018-07-22T02:36:47.473Z,30.17
2018-07-22T02:39:16.073Z,28.53
2018-07-22T02:41:44.642Z,27.83
2018-07-22T02:44:13.251Z,29.83
2018-07-22T02:46:41.826Z,28.97
2018-07-22T02:49:10.479Z,27.90
2018-07-22T02:51:39.211Z,30.27
2018-07-22T02:54:08.035Z,27.80
2018-07-22T02:56:36.754Z,28.60
2018-07-22T02:59:06.227Z,30.20
2018-07-22T03:01:37.073Z,30.73
2018-07-22T03:04:06.586Z,27.53
2018-07-22T03:06:35.372Z,29.83
2018-07-22T03:09:05.487Z,27.57
2018-07-22T03:11:34.141Z,27.90
2018-07-22T03:14:02.813Z,27.20
2018-07-22T03:16:31.457Z,29.60
2018-07-22T03:19:00.074Z,26.63
2018-07-22T03:21:28.303Z,28.30
2018-07-22T03:23:56.918Z,28.03
2018-07-22T03:26:25.530Z,27.57
2018-07-22T03:28:54.389Z,30.30
2018-07-22T03:31:23.013Z,28.27
2018-07-22T03:33:51.621Z,27.50
2018-07-22T03:36:20.218Z,26.27
2018-07-22T03:38:48.873Z,26.43
2018-07-22T03:41:17.473Z,28.30
2018-07-22T03:43:46.073Z,27.10
2018-07-22T03:46:14.650Z,27.93
2018-07-22T03:48:43.221Z,30.27
2018-07-22T03:51:11.797Z,32.23
2018-07-22T03:53:40.444Z,30.13
2018-07-22T03:56:09.073Z,31.13
2018-07-22T03:58:37.745Z,30.70
2018-07-22T04:01:06.530Z,29.90
2018-07-22T04:03:35.202Z,28.97
2018-07-22T04:06:04.231Z,32.33
2018-07-22T04:08:32.858Z,30.93
2018-07-22T04:11:01.496Z,31.10
2018-07-22T04:13:30.098Z,31.03
2018-07-22T04:15:58.805Z,32.13
2018-07-22T04:18:27.425Z,33.43
2018-07-22T04:20:56.069Z,32.57
2018-07-22T04:23:24.633Z,30.03
2018-07-22T04:25:53.317Z,30.50
2018-07-22T04:28:21.953Z,32.70
2018-07-22T04:30:50.565Z,29.20
2018-07-22T04:33:19.200Z,30.50
2018-07-22T04:35:47.829Z,30.07
2018-07-22T04:38:16.413Z,27.67
2018-07-22T04:40:45.047Z,30.83
2018-07-22T04:43:13.661Z,29.27
2018-07-22T04:45:42.238Z,30.97
2018-07-22T04:48:10.861Z,30.63
2018-07-22T04:50:39.474Z,31.27
2018-07-22T04:53:07.810Z,31.67
2018-07-22T04:55:36.533Z,29.47
2018-07-22T04:58:06.097Z,29.13
2018-07-22T05:00:34.889Z,28.87
2018-07-22T05:03:03.724Z,28.83
2018-07-22T05:05:32.377Z,29.03
2018-07-22T05:08:00.616Z,27.93
2018-07-22T05:10:29.185Z,29.93
2018-07-22T05:12:57.801Z,26.87
2018-07-22T05:15:26.388Z,28.07
2018-07-22T05:17:55.079Z,28.40
2018-07-22T05:20:23.719Z,27.40
2018-07-22T05:22:52.415Z,30.13
2018-07-22T05:25:21.007Z,28.63
2018-07-22T05:27:49.629Z,27.90
2018-07-22T05:30:18.208Z,29.43
2018-07-22T05:32:46.797Z,30.07
2018-07-22T05:35:15.380Z,27.87
2018-07-22T05:37:44.021Z,28.20
2018-07-22T05:40:12.673Z,30.63
2018-07-22T05:42:41.293Z,29.37
2018-07-22T05:45:10.001Z,28.80
2018-07-22T05:47:39.305Z,28.20
2018-07-22T05:50:08.201Z,28.90
2018-07-22T05:52:36.846Z,30.83
2018-07-22T05:55:05.629Z,29.73
2018-07-22T05:57:34.586Z,30.07
2018-07-22T06:00:03.401Z,31.00
2018-07-22T06:02:32.009Z,30.87
2018-07-22T06:05:00.632Z,29.97
2018-07-22T06:07:29.200Z,30.63
2018-07-22T06:09:57.781Z,30.73
2018-07-22T06:12:26.427Z,31.57
2018-07-22T06:14:55.092Z,31.50
2018-07-22T06:17:23.787Z,31.50
2018-07-22T06:19:52.531Z,31.93
2018-07-22T06:22:21.366Z,31.93
2018-07-22T06:24:50.043Z,30.97
2018-07-22T06:27:18.711Z,33.40
2018-07-22T06:29:47.300Z,33.30
2018-07-22T06:32:15.892Z,33.20
2018-07-22T06:34:44.513Z,32.20
2018-07-22T06:37:13.131Z,32.97
2018-07-22T06:39:41.710Z,33.20
2018-07-22T06:42:10.361Z,33.33
2018-07-22T06:44:38.988Z,33.17
2018-07-22T06:47:07.711Z,34.17
2018-07-22T06:49:36.478Z,32.80
2018-07-22T06:52:05.182Z,34.90
2018-07-22T06:54:33.874Z,34.37
2018-07-22T06:57:02.626Z,30.73
2018-07-22T06:59:31.262Z,32.10
2018-07-22T07:02:00.010Z,33.30
2018-07-22T07:04:28.625Z,34.63
2018-07-22T07:06:57.197Z,34.93
2018-07-22T07:09:25.865Z,33.10
2018-07-22T07:11:54.505Z,33.57
2018-07-22T07:14:23.291Z,34.30
2018-07-22T07:16:51.919Z,36.00
2018-07-22T07:19:20.506Z,33.57
2018-07-22T07:21:49.086Z,33.90
2018-07-22T07:24:17.682Z,34.23
2018-07-22T07:26:45.963Z,33.27
2018-07-22T07:29:14.189Z,33.73
2018-07-22T07:31:42.771Z,36.00
2018-07-22T07:34:11.382Z,34.07
2018-07-22T07:36:39.996Z,33.97
2018-07-22T07:39:10.764Z,32.37
2018-07-22T07:41:39.816Z,35.57
2018-07-22T07:44:12.517Z,33.90
2018-07-22T07:46:41.156Z,36.33
2018-07-22T07:49:09.861Z,35.10
2018-07-22T07:51:39.022Z,35.23
2018-07-22T07:54:07.777Z,33.40
2018-07-22T07:56:36.498Z,38.17
2018-07-22T07:59:05.397Z,32.57
2018-07-22T08:01:34.190Z,32.53
2018-07-22T08:04:02.942Z,34.10
2018-07-22T08:06:31.545Z,33.17
2018-07-22T08:09:00.129Z,30.73
2018-07-22T08:11:28.726Z,29.00
2018-07-22T08:13:57.359Z,31.53
2018-07-22T08:16:26.647Z,31.27
2018-07-22T08:18:56.439Z,32.47
2018-07-22T08:21:23.999Z,30.17
2018-07-22T08:23:52.634Z,29.67
2018-07-22T08:26:21.257Z,29.73
2018-07-22T08:29:30.674Z,29.90
2018-07-22T08:31:59.789Z,30.93
2018-07-22T08:34:28.348Z,33.80
2018-07-22T08:36:57.186Z,31.57
2018-07-22T08:39:26.845Z,29.60
2018-07-22T08:41:55.898Z,27.47
2018-07-22T08:44:24.514Z,30.27
2018-07-22T08:46:53.149Z,31.40
2018-07-22T08:49:21.938Z,29.57
2018-07-22T08:51:50.577Z,30.13
2018-07-22T08:54:19.244Z,26.37
2018-07-22T08:56:47.905Z,24.57
2018-07-22T08:59:16.538Z,26.77
2018-07-22T09:01:45.297Z,24.17
2018-07-22T09:04:13.902Z,23.40
2018-07-22T09:06:42.489Z,20.80
2018-07-22T09:09:12.221Z,23.20
2018-07-22T09:11:40.964Z,22.63
2018-07-22T09:14:10.276Z,22.23
2018-07-22T09:16:38.963Z,20.87
2018-07-22T09:19:07.694Z,20.40
2018-07-22T09:21:36.638Z,22.63
2018-07-22T09:24:05.465Z,22.13
2018-07-22T09:26:34.221Z,20.77
2018-07-22T09:29:03.006Z,19.97
2018-07-22T09:31:31.629Z,21.97
2018-07-22T09:34:00.292Z,21.05
2018-07-22T09:36:28.949Z,20.60
2018-07-22T09:38:57.544Z,19.85
2018-07-22T09:41:26.189Z,17.62
2018-07-22T09:43:54.871Z,18.42
2018-07-22T09:46:23.557Z,18.20
2018-07-22T09:48:52.495Z,18.05
2018-07-22T09:51:21.182Z,18.20
2018-07-22T09:53:49.947Z,19.30
2018-07-22T09:56:18.541Z,18.87
2018-07-22T09:58:47.142Z,17.95
2018-07-22T10:01:15.833Z,18.75
2018-07-22T10:03:44.388Z,20.25
2018-07-22T10:06:12.994Z,18.48
2018-07-22T10:08:41.620Z,18.55
2018-07-22T10:11:10.416Z,17.65
2018-07-22T10:13:39.049Z,19.32
2018-07-22T10:16:07.749Z,18.65
2018-07-22T10:18:36.517Z,20.25
2018-07-22T10:21:05.689Z,19.37
2018-07-22T10:23:34.429Z,18.25
2018-07-22T10:26:03.128Z,18.95
2018-07-22T10:28:32.113Z,17.67
2018-07-22T10:31:00.717Z,18.85
2018-07-22T10:33:29.438Z,17.57
2018-07-22T10:35:58.091Z,18.07
2018-07-22T10:38:26.677Z,17.25
2018-07-22T10:40:55.269Z,17.73
2018-07-22T10:43:23.980Z,17.30
2018-07-22T10:45:52.663Z,16.80
2018-07-22T10:48:21.286Z,18.17
2018-07-22T10:50:49.933Z,17.12
2018-07-22T10:53:18.590Z,20.48
2018-07-22T10:55:47.226Z,20.85
2018-07-22T10:58:15.857Z,21.07
2018-07-22T11:00:44.454Z,20.25
2018-07-22T11:03:12.698Z,20.48
2018-07-22T11:05:41.917Z,20.05
2018-07-22T11:08:10.555Z,19.52
2018-07-22T11:10:39.189Z,17.45
2018-07-22T11:13:07.899Z,18.50
2018-07-22T11:15:36.631Z,19.50
2018-07-22T11:18:06.787Z,17.73
2018-07-22T11:20:35.840Z,17.40
2018-07-22T11:23:04.550Z,32.65
2018-07-22T11:25:33.264Z,21.25
2018-07-22T11:28:04.690Z,17.35
2018-07-22T11:30:33.430Z,17.55
2018-07-22T11:33:02.040Z,17.52
2018-07-22T11:35:30.661Z,17.40
2018-07-22T11:37:59.281Z,17.70
2018-07-22T11:40:27.925Z,17.17
2018-07-22T11:42:56.547Z,16.87
2018-07-22T11:45:25.169Z,18.27
2018-07-22T11:47:53.830Z,17.20
2018-07-22T11:50:22.466Z,17.20
2018-07-22T11:52:51.110Z,17.37
2018-07-22T11:55:20.629Z,17.35
2018-07-22T11:57:49.329Z,17.10
2018-07-22T12:00:18.013Z,16.97
2018-07-22T12:02:46.545Z,17.40
2018-07-22T12:05:15.161Z,16.93
2018-07-22T12:07:43.848Z,16.62
2018-07-22T12:10:14.780Z,17.25
2018-07-22T12:12:43.375Z,17.07
2018-07-22T12:15:12.008Z,17.15
2018-07-22T12:17:40.706Z,15.75
2018-07-22T12:20:09.429Z,33.80
2018-07-22T12:22:38.849Z,29.20
2018-07-22T12:25:07.613Z,56.40
2018-07-22T12:27:36.266Z,21.87
2018-07-22T12:30:05.130Z,16.62
2018-07-22T12:32:33.911Z,28.12
2018-07-22T12:35:02.637Z,16.97
2018-07-22T12:37:31.254Z,20.48
2018-07-22T12:39:59.868Z,18.15
2018-07-22T12:42:29.053Z,18.12
2018-07-22T12:44:57.633Z,17.77
2018-07-22T12:47:26.238Z,17.55
2018-07-22T12:49:54.827Z,17.92
2018-07-22T12:52:23.572Z,17.98
2018-07-22T12:54:52.208Z,17.80
2018-07-22T12:57:20.844Z,17.50
2018-07-22T12:59:49.431Z,17.77
2018-07-22T13:02:18.059Z,17.17
2018-07-22T13:04:46.802Z,16.67
2018-07-22T13:07:15.512Z,16.15
2018-07-22T13:09:44.101Z,15.98
2018-07-22T13:12:12.692Z,17.23
2018-07-22T13:14:41.342Z,16.50
2018-07-22T13:17:09.969Z,15.60
2018-07-22T13:19:39.526Z,15.55
2018-07-22T13:22:08.177Z,15.50
2018-07-22T13:24:43.175Z,16.25
2018-07-22T13:27:11.914Z,15.58
2018-07-22T13:29:40.560Z,17.32
2018-07-22T13:32:09.454Z,15.48
2018-07-22T13:34:37.772Z,15.90
2018-07-22T13:37:06.949Z,16.90
2018-07-22T13:39:35.670Z,18.85
2018-07-22T13:42:04.358Z,18.45
2018-07-22T13:44:32.966Z,18.25
2018-07-22T13:47:01.601Z,16.55
2018-07-22T13:49:30.212Z,16.17
2018-07-22T13:51:58.856Z,16.97
2018-07-22T13:54:27.666Z,15.15
2018-07-22T13:56:56.344Z,15.60
2018-07-22T13:59:24.955Z,16.30
2018-07-22T14:01:53.682Z,16.67
2018-07-22T14:04:22.324Z,18.77
2018-07-22T14:06:51.009Z,18.15
2018-07-22T14:09:19.629Z,18.62
2018-07-22T14:11:48.270Z,17.80
2018-07-22T14:14:16.858Z,18.42
2018-07-22T14:16:45.470Z,18.12
2018-07-22T14:19:14.112Z,16.52
2018-07-22T14:21:42.775Z,15.48
2018-07-22T14:24:11.346Z,15.48
2018-07-22T14:26:40.032Z,16.00
2018-07-22T14:29:08.717Z,14.90
2018-07-22T14:31:37.587Z,15.40
2018-07-22T14:34:06.275Z,15.72
2018-07-22T14:36:35.245Z,14.73
2018-07-22T14:39:06.177Z,14.18
2018-07-22T14:41:35.023Z,14.45
2018-07-22T14:44:03.756Z,14.65
2018-07-22T14:46:32.406Z,14.40
2018-07-22T14:49:00.990Z,14.93
2018-07-22T14:51:29.694Z,14.45
2018-07-22T14:53:58.293Z,15.63
2018-07-22T14:56:26.936Z,17.90
2018-07-22T14:58:55.526Z,18.50
2018-07-22T15:01:24.219Z,18.80
2018-07-22T15:03:52.986Z,18.30
2018-07-22T15:06:22.259Z,18.45
2018-07-22T15:08:51.337Z,17.70
2018-07-22T15:11:20.039Z,17.45
2018-07-22T15:13:48.749Z,16.95
2018-07-22T15:16:17.310Z,16.95
2018-07-22T15:18:45.950Z,17.10
2018-07-22T15:21:14.713Z,16.02
2018-07-22T15:23:43.326Z,17.30
2018-07-22T15:26:11.990Z,16.65
2018-07-22T15:28:40.709Z,16.60
2018-07-22T15:31:09.373Z,17.23
2018-07-22T15:33:38.081Z,15.98
2018-07-22T15:36:06.800Z,16.67
2018-07-22T15:38:35.520Z,16.32
2018-07-22T15:41:04.277Z,16.20
2018-07-22T15:43:32.950Z,14.80
2018-07-22T15:46:01.608Z,14.43
2018-07-22T15:48:30.189Z,14.18
2018-07-22T15:50:58.840Z,15.35
2018-07-22T15:53:27.442Z,16.15
2018-07-22T15:55:56.095Z,16.12
2018-07-22T15:58:24.768Z,15.50
2018-07-22T16:00:53.613Z,15.50
2018-07-22T16:03:22.502Z,15.15
2018-07-22T16:05:51.121Z,15.93
2018-07-22T16:08:19.762Z,39.38
2018-07-22T16:10:48.374Z,56.95
2018-07-22T16:13:17.004Z,25.50
2018-07-22T16:15:45.646Z,16.87
2018-07-22T16:18:14.273Z,26.07
2018-07-22T16:20:42.897Z,17.52
2018-07-22T16:23:11.577Z,17.55
2018-07-22T16:25:45.399Z,17.15
2018-07-22T16:28:14.073Z,17.67
2018-07-22T16:30:42.697Z,16.57
2018-07-22T16:33:11.341Z,18.12
2018-07-22T16:35:40.127Z,17.05
2018-07-22T16:38:08.805Z,18.42
2018-07-22T16:40:37.488Z,19.42
2018-07-22T16:43:06.234Z,16.42
2018-07-22T16:45:34.979Z,18.30
2018-07-22T16:48:04.965Z,19.00
2018-07-22T16:50:33.728Z,16.57
2018-07-22T16:53:02.631Z,17.92
2018-07-22T16:55:31.237Z,17.87
2018-07-22T16:57:59.928Z,18.32
2018-07-22T17:00:28.508Z,17.82
2018-07-22T17:02:57.108Z,19.98
2018-07-22T17:05:25.716Z,19.65
2018-07-22T17:07:54.362Z,19.75
2018-07-22T17:10:23.011Z,19.17
2018-07-22T17:12:51.630Z,18.07
2018-07-22T17:15:20.208Z,18.32
2018-07-22T17:17:48.819Z,17.17
2018-07-22T17:20:17.457Z,17.00
2018-07-22T17:22:46.080Z,16.75
2018-07-22T17:25:14.651Z,18.20
2018-07-22T17:27:43.248Z,23.35
2018-07-22T17:30:11.861Z,16.90
2018-07-22T17:32:40.567Z,16.10
2018-07-22T17:35:09.205Z,17.30
2018-07-22T17:37:37.956Z,19.95
2018-07-22T17:40:06.983Z,19.45
2018-07-22T17:42:35.909Z,18.30
2018-07-22T17:45:04.690Z,17.62
2018-07-22T17:47:33.519Z,18.98
2018-07-22T17:50:02.262Z,18.10
2018-07-22T17:52:30.862Z,17.02
2018-07-22T17:54:59.446Z,19.32
2018-07-22T17:57:28.074Z,18.37
2018-07-22T17:59:56.658Z,18.35
2018-07-22T18:02:25.410Z,19.32
2018-07-22T18:04:54.213Z,18.02
2018-07-22T18:07:22.818Z,19.70
2018-07-22T18:09:51.520Z,20.30
2018-07-22T18:12:20.214Z,18.73
2018-07-22T18:14:48.918Z,20.40
2018-07-22T18:17:17.629Z,19.52
2018-07-22T18:19:46.304Z,18.67
2018-07-22T18:22:14.921Z,18.07
2018-07-22T18:24:43.556Z,19.02
2018-07-22T18:27:12.173Z,17.07
2018-07-22T18:29:40.796Z,17.87
2018-07-22T18:32:09.446Z,20.65
2018-07-22T18:34:38.136Z,20.85
2018-07-22T18:37:07.072Z,19.62
2018-07-22T18:39:36.001Z,19.37
2018-07-22T18:42:04.834Z,19.30
2018-07-22T18:44:33.657Z,19.00
2018-07-22T18:47:02.294Z,20.57
2018-07-22T18:49:30.981Z,21.33
2018-07-22T18:51:59.654Z,22.82
2018-07-22T18:54:28.293Z,22.98
2018-07-22T18:56:56.885Z,22.22
2018-07-22T18:59:25.496Z,22.73
2018-07-22T19:01:54.158Z,20.50
2018-07-22T19:04:22.930Z,21.70
2018-07-22T19:06:51.585Z,24.17
2018-07-22T19:09:20.246Z,23.00
2018-07-22T19:11:48.833Z,24.43
2018-07-22T19:14:17.479Z,22.53
2018-07-22T19:16:46.054Z,22.23
2018-07-22T19:19:14.710Z,19.60
2018-07-22T19:21:44.141Z,22.30
2018-07-22T19:24:12.493Z,23.00
2018-07-22T19:26:41.198Z,22.35
2018-07-22T19:29:09.961Z,22.13
2018-07-22T19:31:38.699Z,23.47
2018-07-22T19:34:07.589Z,21.67
2018-07-22T19:36:36.469Z,22.60
2018-07-22T19:39:07.285Z,21.97
2018-07-22T19:41:36.014Z,21.30
2018-07-22T19:44:04.824Z,20.17
2018-07-22T19:46:34.163Z,20.50
2018-07-22T19:49:02.865Z,20.30
2018-07-22T19:51:31.485Z,20.33
2018-07-22T19:54:00.128Z,20.60
2018-07-22T19:56:28.721Z,19.43
2018-07-22T19:58:58.731Z,20.23
2018-07-22T20:01:27.369Z,20.47
2018-07-22T20:03:56.042Z,21.67
2018-07-22T20:06:24.653Z,21.73
2018-07-22T20:08:53.296Z,20.67
2018-07-22T20:11:21.905Z,20.97
2018-07-22T20:13:50.517Z,20.53
2018-07-22T20:16:19.150Z,19.87
2018-07-22T20:18:47.806Z,21.87
2018-07-22T20:21:16.489Z,21.13
2018-07-22T20:23:45.143Z,21.23
2018-07-22T20:26:13.720Z,22.50
2018-07-22T20:28:42.352Z,21.43
2018-07-22T20:31:11.013Z,21.57
2018-07-22T20:33:39.737Z,21.53
2018-07-22T20:36:08.566Z,22.70
2018-07-22T20:38:37.274Z,21.70
2018-07-22T20:41:06.003Z,21.73
2018-07-22T20:43:35.433Z,22.60
2018-07-22T20:46:04.250Z,21.13
2018-07-22T20:48:32.886Z,23.43
2018-07-22T20:51:01.819Z,23.23
2018-07-22T20:53:30.654Z,21.07
2018-07-22T20:55:59.661Z,20.03
2018-07-22T20:58:28.646Z,20.57
2018-07-22T21:00:57.565Z,20.17
2018-07-22T21:03:26.209Z,18.60
2018-07-22T21:05:54.857Z,18.30
2018-07-22T21:08:23.520Z,19.90
2018-07-22T21:10:52.186Z,18.50
2018-07-22T21:13:23.397Z,18.67
2018-07-22T21:15:52.234Z,17.47
2018-07-22T21:18:20.925Z,18.33
2018-07-22T21:20:49.590Z,17.90
2018-07-22T21:23:18.193Z,17.77
2018-07-22T21:25:46.819Z,17.87
2018-07-22T21:28:15.437Z,18.37
2018-07-22T21:30:44.083Z,18.83
2018-07-22T21:33:12.696Z,18.80
2018-07-22T21:35:41.305Z,17.80
2018-07-22T21:38:09.898Z,17.47
2018-07-22T21:40:38.684Z,17.33
2018-07-22T21:43:07.354Z,18.00
2018-07-22T21:45:36.061Z,18.40
2018-07-22T21:48:04.972Z,17.50
2018-07-22T21:50:33.857Z,19.03
2018-07-22T21:53:02.527Z,16.93
2018-07-22T21:55:31.166Z,17.97
2018-07-22T21:57:59.786Z,17.70
2018-07-22T22:00:33.709Z,18.00
2018-07-22T22:03:03.522Z,18.07
2018-07-22T22:05:32.136Z,20.20
2018-07-22T22:08:00.773Z,17.73
2018-07-22T22:10:29.508Z,18.87
2018-07-22T22:12:58.233Z,17.80
2018-07-22T22:15:27.962Z,19.37
2018-07-22T22:18:00.718Z,17.90
2018-07-22T22:20:29.854Z,21.90
2018-07-22T22:22:58.529Z,22.13
2018-07-22T22:25:27.243Z,19.87
2018-07-22T22:27:55.924Z,21.70
2018-07-22T22:30:24.564Z,23.03
2018-07-22T22:32:53.185Z,21.33
2018-07-22T22:35:21.833Z,20.27
2018-07-22T22:37:50.454Z,19.87
2018-07-22T22:40:19.161Z,21.10
2018-07-22T22:42:47.861Z,20.27
2018-07-22T22:45:16.691Z,22.50
2018-07-22T22:47:45.489Z,20.03
2018-07-22T22:50:14.197Z,20.17
2018-07-22T22:52:51.104Z,22.73
2018-07-22T22:55:19.913Z,18.57
2018-07-22T22:57:59.590Z,24.30
2018-07-22T23:00:28.296Z,23.37
2018-07-22T23:02:56.909Z,23.83
2018-07-22T23:05:25.511Z,23.87
2018-07-22T23:07:54.134Z,24.20
2018-07-22T23:10:22.403Z,25.83
2018-07-22T23:12:51.069Z,26.10
2018-07-22T23:15:19.687Z,24.93
2018-07-22T23:17:48.357Z,26.40
2018-07-22T23:20:16.998Z,24.00
2018-07-22T23:22:45.640Z,23.87
2018-07-22T23:25:14.334Z,24.83
2018-07-22T23:27:43.049Z,24.17
2018-07-22T23:30:11.738Z,27.00
2018-07-22T23:32:40.430Z,26.77
2018-07-22T23:35:09.045Z,25.33
2018-07-22T23:37:37.671Z,25.43
2018-07-22T23:40:06.286Z,26.40
2018-07-22T23:42:34.912Z,24.90
2018-07-22T23:45:03.500Z,23.17
2018-07-22T23:47:32.154Z,22.27
2018-07-22T23:50:00.785Z,24.40
2018-07-22T23:52:29.548Z,24.73
2018-07-22T23:54:58.202Z,23.87
2018-07-22T23:57:26.856Z,23.63
2018-07-22T23:59:55.436Z,23.60
